Terminal Aerodrome Forecast
Issued by NWS Sioux Falls, SD

Home | Current Version | Previous Version | Text Only | Print | Product List | Glossary Off
Versions: 1 2 3 4 5 6 7 8 9 10 11 12

014
FTUS43 KFSD 272331
TAFHON
TAF
KHON 272331Z 2800/2824 01012KT P6SM FEW045 SCT200
     FM280130 02008KT P6SM SCT200
     FM281800 01007KT P6SM BKN090=

USA.gov is the U.S. government's official web portal to all federal, state and local government web resources and services.